createdAt,value
2017-05-24T00:00:58.225Z,67.77
2017-05-24T00:01:58.244Z,67.67
2017-05-24T00:02:58.233Z,67.62
2017-05-24T00:03:58.204Z,67.67
2017-05-24T00:04:58.236Z,67.67
2017-05-24T00:05:58.199Z,68.24
2017-05-24T00:06:58.242Z,67.75
2017-05-24T00:07:58.232Z,67.72
2017-05-24T00:08:58.229Z,67.83
2017-05-24T00:09:58.227Z,67.83
2017-05-24T00:10:58.237Z,67.83
2017-05-24T00:11:58.264Z,67.98
2017-05-24T00:12:58.214Z,68.19
2017-05-24T00:13:58.246Z,68.24
2017-05-24T00:14:58.247Z,68.74
2017-05-24T00:15:58.242Z,68.81
2017-05-24T00:16:58.234Z,69.10
2017-05-24T00:17:58.253Z,69.20
2017-05-24T00:18:58.218Z,69.34
2017-05-24T00:19:58.217Z,68.99
2017-05-24T00:20:58.245Z,69.49
2017-05-24T00:21:58.225Z,69.28
2017-05-24T00:22:58.246Z,69.67
2017-05-24T00:23:58.244Z,69.57
2017-05-24T00:24:58.218Z,69.82
2017-05-24T00:25:58.246Z,70.17
2017-05-24T00:26:58.241Z,70.29
2017-05-24T00:27:58.218Z,70.58
2017-05-24T00:28:58.262Z,70.56
2017-05-24T00:29:58.243Z,70.74
2017-05-24T00:30:58.243Z,70.79
2017-05-24T00:31:58.245Z,70.56
2017-05-24T00:32:58.243Z,71.10
2017-05-24T00:33:58.240Z,71.39
2017-05-24T00:34:58.245Z,71.39
2017-05-24T00:35:58.238Z,71.73
2017-05-24T00:36:58.224Z,72.14
2017-05-24T00:37:58.226Z,72.12
2017-05-24T00:38:58.231Z,72.48
2017-05-24T00:39:58.243Z,72.36
2017-05-24T00:40:58.256Z,72.80
2017-05-24T00:41:58.229Z,73.14
2017-05-24T00:42:58.228Z,73.55
2017-05-24T00:43:58.232Z,73.74
2017-05-24T00:44:58.230Z,73.89
2017-05-24T00:45:58.233Z,73.77
2017-05-24T00:46:58.217Z,73.77
2017-05-24T00:47:58.282Z,73.85
2017-05-24T00:48:58.220Z,73.82
2017-05-24T00:49:58.225Z,73.82
2017-05-24T00:50:58.225Z,74.05
2017-05-24T00:51:58.222Z,74.40
2017-05-24T00:52:58.221Z,74.50
2017-05-24T00:53:58.296Z,74.71
2017-05-24T00:54:58.235Z,74.55
2017-05-24T00:55:58.227Z,74.73
2017-05-24T00:56:58.259Z,75.02
2017-05-24T00:57:58.274Z,75.26
2017-05-24T00:58:58.263Z,75.07
2017-05-24T00:59:58.246Z,75.23
2017-05-24T01:00:58.310Z,75.21
2017-05-24T01:01:58.258Z,74.94
2017-05-24T01:02:58.244Z,75.10
2017-05-24T01:03:58.262Z,75.41
2017-05-24T01:04:58.266Z,75.34
2017-05-24T01:05:58.264Z,75.29
2017-05-24T01:06:58.275Z,75.41
2017-05-24T01:07:58.273Z,75.29
2017-05-24T01:08:58.315Z,75.44
2017-05-24T01:09:58.251Z,75.34
2017-05-24T01:10:58.263Z,75.70
2017-05-24T01:11:58.279Z,75.78
2017-05-24T01:12:58.274Z,75.76
2017-05-24T01:13:58.315Z,76.07
2017-05-24T01:14:58.246Z,76.07
2017-05-24T01:15:58.281Z,76.12
2017-05-24T01:16:58.281Z,76.18
2017-05-24T01:17:58.246Z,76.39
2017-05-24T01:18:58.299Z,76.26
2017-05-24T01:19:58.270Z,76.18
2017-05-24T01:20:58.322Z,76.62
2017-05-24T01:21:58.321Z,76.39
2017-05-24T01:22:58.283Z,76.28
2017-05-24T01:23:58.255Z,76.52
2017-05-24T01:24:58.251Z,76.18
2017-05-24T01:25:58.324Z,75.99
2017-05-24T01:26:58.387Z,75.84
2017-05-24T01:27:58.283Z,75.84
2017-05-24T01:28:58.282Z,75.89
2017-05-24T01:29:58.283Z,76.34
2017-05-24T01:30:58.282Z,76.39
2017-05-24T01:31:58.282Z,76.44
2017-05-24T01:32:58.281Z,76.78
2017-05-24T01:33:58.278Z,77.15
2017-05-24T01:34:58.310Z,77.41
2017-05-24T01:35:58.284Z,77.41
2017-05-24T01:36:59.340Z,77.78
2017-05-24T01:37:58.287Z,77.86
2017-05-24T01:38:58.329Z,77.67
2017-05-24T01:39:58.330Z,77.73
2017-05-24T01:40:58.333Z,77.54
2017-05-24T01:41:58.290Z,77.83
2017-05-24T01:42:58.265Z,77.25
2017-05-24T01:43:58.474Z,79.31
2017-05-24T01:44:58.262Z,79.57
2017-05-24T01:45:58.259Z,79.63
2017-05-24T01:46:58.251Z,80.92
2017-05-24T01:47:58.260Z,81.18
2017-05-24T01:48:58.254Z,81.08
2017-05-24T01:49:58.258Z,81.08
2017-05-24T01:50:58.252Z,80.92
2017-05-24T01:51:58.265Z,81.56
2017-05-24T01:52:58.257Z,82.35
2017-05-24T01:53:58.255Z,82.11
2017-05-24T01:54:58.256Z,82.37
2017-05-24T01:55:58.256Z,83.01
2017-05-24T01:56:58.291Z,82.85
2017-05-24T01:57:58.295Z,83.06
2017-05-24T01:58:58.262Z,83.01
2017-05-24T01:59:58.263Z,83.62
2017-05-24T02:00:58.265Z,84.39
2017-05-24T02:01:58.300Z,84.15
2017-05-24T02:02:58.293Z,84.89
2017-05-24T02:03:58.343Z,85.05
2017-05-24T02:04:58.332Z,84.95
2017-05-24T02:05:58.301Z,85.24
2017-05-24T02:06:58.306Z,85.75
2017-05-24T02:07:58.292Z,85.88
2017-05-24T02:08:58.296Z,85.83
2017-05-24T02:09:58.295Z,85.56
2017-05-24T02:10:58.294Z,85.66
2017-05-24T02:11:58.292Z,86.07
2017-05-24T02:12:58.296Z,86.89
2017-05-24T02:13:58.293Z,87.32
2017-05-24T02:14:58.304Z,87.34
2017-05-24T02:15:58.292Z,87.80
2017-05-24T02:16:58.257Z,88.23
2017-05-24T02:17:58.311Z,87.98
2017-05-24T02:18:58.310Z,88.36
2017-05-24T02:19:58.332Z,88.36
2017-05-24T02:20:58.295Z,88.71
2017-05-24T02:21:58.310Z,88.25
2017-05-24T02:22:58.301Z,88.15
2017-05-24T02:23:58.358Z,88.60
2017-05-24T02:24:58.314Z,89.64
2017-05-24T02:25:58.313Z,89.86
2017-05-24T02:26:58.313Z,89.91
2017-05-24T02:27:58.318Z,90.07
2017-05-24T02:28:58.358Z,89.72
2017-05-24T02:29:58.314Z,89.72
2017-05-24T02:30:58.304Z,89.64
2017-05-24T02:31:58.313Z,89.88
2017-05-24T02:32:58.306Z,90.26
2017-05-24T02:33:58.336Z,89.94
2017-05-24T02:34:58.341Z,90.34
2017-05-24T02:35:58.322Z,89.94
2017-05-24T02:36:58.292Z,89.54
2017-05-24T02:37:58.284Z,89.35
2017-05-24T02:38:58.312Z,88.60
2017-05-24T02:39:58.310Z,87.98
2017-05-24T02:40:58.319Z,87.64
2017-05-24T02:41:58.425Z,88.28
2017-05-24T02:42:58.326Z,88.15
2017-05-24T02:43:58.317Z,88.57
2017-05-24T02:44:58.318Z,88.04
2017-05-24T02:45:58.327Z,87.61
2017-05-24T02:46:58.326Z,87.02
2017-05-24T02:47:58.325Z,87.21
2017-05-24T02:48:58.328Z,87.59
2017-05-24T02:49:58.369Z,86.81
2017-05-24T02:50:58.365Z,86.73
2017-05-24T02:51:58.320Z,86.25
2017-05-24T02:52:58.326Z,86.04
2017-05-24T02:53:58.323Z,86.22
2017-05-24T02:54:58.332Z,86.09
2017-05-24T02:55:58.371Z,85.46
2017-05-24T02:56:58.301Z,84.44
2017-05-24T02:57:58.326Z,84.12
2017-05-24T02:58:58.307Z,83.86
2017-05-24T02:59:58.321Z,83.59
2017-05-24T03:00:58.426Z,83.06
2017-05-24T03:01:58.329Z,82.75
2017-05-24T03:02:58.327Z,82.69
2017-05-24T03:03:58.525Z,82.69
2017-05-24T03:04:58.326Z,82.82
2017-05-24T03:05:58.305Z,83.06
2017-05-24T03:06:58.299Z,83.62
2017-05-24T03:07:58.325Z,84.02
2017-05-24T03:08:58.376Z,84.50
2017-05-24T03:09:58.318Z,84.55
2017-05-24T03:10:58.322Z,85.08
2017-05-24T03:11:58.388Z,85.48
2017-05-24T03:12:58.328Z,85.46
2017-05-24T03:13:58.326Z,86.04
2017-05-24T03:14:58.329Z,86.73
2017-05-24T03:15:58.326Z,87.45
2017-05-24T03:16:58.329Z,88.33
2017-05-24T03:17:58.335Z,88.36
2017-05-24T03:18:58.533Z,88.36
2017-05-24T03:19:58.331Z,88.92
2017-05-24T03:20:58.536Z,88.95
2017-05-24T03:21:58.333Z,89.59
2017-05-24T03:22:58.346Z,89.43
2017-05-24T03:23:58.333Z,89.48
2017-05-24T03:24:58.359Z,90.47
2017-05-24T03:25:58.332Z,90.90
2017-05-24T03:26:58.339Z,91.28
2017-05-24T03:27:58.346Z,91.11
2017-05-24T03:28:58.347Z,91.07
2017-05-24T03:29:58.314Z,91.90
2017-05-24T03:30:58.339Z,92.16
2017-05-24T03:31:58.349Z,92.49
2017-05-24T03:32:58.335Z,92.38
2017-05-24T03:33:58.358Z,92.01
2017-05-24T03:34:58.356Z,91.68
2017-05-24T03:35:58.314Z,92.22
2017-05-24T03:36:58.343Z,92.81
2017-05-24T03:37:58.348Z,92.59
2017-05-24T03:38:58.341Z,93.37
2017-05-24T03:39:58.346Z,93.10
2017-05-24T03:40:58.359Z,92.95
2017-05-24T03:41:58.340Z,92.59
2017-05-24T03:42:58.343Z,92.59
2017-05-24T03:43:58.339Z,92.76
2017-05-24T03:44:58.335Z,92.95
2017-05-24T03:45:58.344Z,93.13
2017-05-24T03:46:58.393Z,93.40
2017-05-24T03:47:58.333Z,93.43
2017-05-24T03:48:58.324Z,93.83
2017-05-24T03:49:58.332Z,93.81
2017-05-24T03:50:58.325Z,93.75
2017-05-24T03:51:58.327Z,94.48
2017-05-24T03:52:58.328Z,94.15
2017-05-24T03:53:58.327Z,93.75
2017-05-24T03:54:58.330Z,94.21
2017-05-24T03:55:58.326Z,93.89
2017-05-24T03:56:58.331Z,93.70
2017-05-24T03:57:58.353Z,93.48
2017-05-24T03:58:58.354Z,93.08
2017-05-24T03:59:58.332Z,93.32
2017-05-24T04:00:58.350Z,93.29
2017-05-24T04:01:58.351Z,93.37
2017-05-24T04:02:58.349Z,93.10
2017-05-24T04:03:58.368Z,92.57
2017-05-24T04:04:58.348Z,92.57
2017-05-24T04:05:58.555Z,92.30
2017-05-24T04:06:58.348Z,92.05
2017-05-24T04:07:58.290Z,91.79
2017-05-24T04:08:58.301Z,91.79
2017-05-24T04:09:58.290Z,91.36
2017-05-24T04:10:58.253Z,91.01
2017-05-24T04:11:58.303Z,90.28
2017-05-24T04:12:58.307Z,89.37
2017-05-24T04:13:58.263Z,89.00
2017-05-24T04:14:58.319Z,89.03
2017-05-24T04:15:58.293Z,88.97
2017-05-24T04:16:58.307Z,88.95
2017-05-24T04:17:58.331Z,89.16
2017-05-24T04:18:58.406Z,88.31
2017-05-24T04:19:58.361Z,88.36
2017-05-24T04:20:58.338Z,88.09
2017-05-24T04:21:58.422Z,87.90
2017-05-24T04:22:58.373Z,87.13
2017-05-24T04:23:58.381Z,86.65
2017-05-24T04:24:58.365Z,85.66
2017-05-24T04:25:58.353Z,84.31
2017-05-24T04:26:58.378Z,83.67
2017-05-24T04:27:58.365Z,83.40
2017-05-24T04:28:58.360Z,82.98
2017-05-24T04:29:58.362Z,82.14
2017-05-24T04:30:58.360Z,81.95
2017-05-24T04:31:58.359Z,81.90
2017-05-24T04:32:58.343Z,81.90
2017-05-24T04:33:58.470Z,81.42
2017-05-24T04:34:58.368Z,80.65
2017-05-24T04:35:58.371Z,81.05
2017-05-24T04:36:58.370Z,79.94
2017-05-24T04:37:58.365Z,80.63
2017-05-24T04:38:58.382Z,80.81
2017-05-24T04:39:58.366Z,79.89
2017-05-24T04:40:58.378Z,79.02
2017-05-24T04:41:58.386Z,79.15
2017-05-24T04:42:58.370Z,78.31
2017-05-24T04:43:58.424Z,78.07
2017-05-24T04:44:58.403Z,77.62
2017-05-24T04:45:58.540Z,76.65
2017-05-24T04:46:58.381Z,75.26
2017-05-24T04:47:58.478Z,75.94
2017-05-24T04:48:58.372Z,74.66
2017-05-24T04:49:58.577Z,74.66
2017-05-24T04:50:58.374Z,74.21
2017-05-24T04:51:58.333Z,74.13
2017-05-24T04:52:58.428Z,73.61
2017-05-24T04:53:58.366Z,73.08
2017-05-24T04:54:58.371Z,73.16
2017-05-24T04:55:58.378Z,73.55
2017-05-24T04:56:58.581Z,73.42
2017-05-24T04:57:58.362Z,73.69
2017-05-24T04:58:58.362Z,73.58
2017-05-24T04:59:58.359Z,73.16
2017-05-24T05:00:58.363Z,73.24
2017-05-24T05:01:58.364Z,73.14
2017-05-24T05:02:58.361Z,72.53
2017-05-24T05:03:58.362Z,72.04
2017-05-24T05:04:58.364Z,72.46
2017-05-24T05:05:58.361Z,72.38
2017-05-24T05:06:58.364Z,72.75
2017-05-24T05:07:58.393Z,71.78
2017-05-24T05:08:58.384Z,72.20
2017-05-24T05:09:58.387Z,72.36
2017-05-24T05:10:58.405Z,72.67
2017-05-24T05:11:58.384Z,72.14
2017-05-24T05:12:58.383Z,71.99
2017-05-24T05:13:58.384Z,71.31
2017-05-24T05:14:58.391Z,72.01
2017-05-24T05:15:58.441Z,71.31
2017-05-24T05:16:58.394Z,71.03
2017-05-24T05:17:58.366Z,71.42
2017-05-24T05:18:59.499Z,71.70
2017-05-24T05:19:58.393Z,71.49
2017-05-24T05:20:58.386Z,71.99
2017-05-24T05:21:58.389Z,71.15
2017-05-24T05:22:58.387Z,71.42
2017-05-24T05:23:58.386Z,71.60
2017-05-24T05:24:58.386Z,71.23
2017-05-24T05:25:58.414Z,71.26
2017-05-24T05:26:58.382Z,71.03
2017-05-24T05:27:58.450Z,71.23
2017-05-24T05:28:58.379Z,71.03
2017-05-24T05:29:58.376Z,71.03
2017-05-24T05:30:58.376Z,71.10
2017-05-24T05:31:58.375Z,69.93
2017-05-24T05:32:58.378Z,70.14
2017-05-24T05:33:58.377Z,70.89
2017-05-24T05:34:58.381Z,71.49
2017-05-24T05:35:58.376Z,70.40
2017-05-24T05:36:58.375Z,69.96
2017-05-24T05:37:58.385Z,69.96
2017-05-24T05:38:58.385Z,69.26
2017-05-24T05:39:58.391Z,69.44
2017-05-24T05:40:58.389Z,70.11
2017-05-24T05:41:58.387Z,69.72
2017-05-24T05:42:58.387Z,69.38
2017-05-24T05:43:58.386Z,69.67
2017-05-24T05:44:58.388Z,69.07
2017-05-24T05:45:58.390Z,68.29
2017-05-24T05:46:58.380Z,67.28
2017-05-24T05:47:58.405Z,67.08
2017-05-24T05:48:58.390Z,67.64
2017-05-24T05:49:58.430Z,66.64
2017-05-24T05:50:58.390Z,66.27
2017-05-24T05:51:58.409Z,67.25
2017-05-24T05:52:58.405Z,67.23
2017-05-24T05:53:58.405Z,65.45
2017-05-24T05:54:58.431Z,65.32
2017-05-24T05:55:58.418Z,66.30
2017-05-24T05:56:58.418Z,66.81
2017-05-24T05:57:58.418Z,65.32
2017-05-24T05:58:58.382Z,65.99
2017-05-24T05:59:58.388Z,65.76
2017-05-24T06:00:58.486Z,67.00
2017-05-24T06:01:58.387Z,66.56
2017-05-24T06:02:58.385Z,66.30
2017-05-24T06:03:58.384Z,65.78
2017-05-24T06:04:58.493Z,66.89
2017-05-24T06:05:58.385Z,66.30
2017-05-24T06:06:58.397Z,66.50
2017-05-24T06:07:58.391Z,65.91
2017-05-24T06:08:58.392Z,66.64
2017-05-24T06:09:58.390Z,66.14
2017-05-24T06:10:58.398Z,66.35
2017-05-24T06:11:58.390Z,65.73
2017-05-24T06:12:58.394Z,65.26
2017-05-24T06:13:58.393Z,66.17
2017-05-24T06:14:58.394Z,64.88
2017-05-24T06:15:58.396Z,65.55
2017-05-24T06:16:58.398Z,65.32
2017-05-24T06:17:58.399Z,65.62
2017-05-24T06:18:58.447Z,65.18
2017-05-24T06:19:58.429Z,65.08
2017-05-24T06:20:58.448Z,64.93
2017-05-24T06:21:58.388Z,63.82
2017-05-24T06:22:58.426Z,63.69
2017-05-24T06:23:58.433Z,64.31
2017-05-24T06:24:58.433Z,65.83
2017-05-24T06:25:58.433Z,65.73
2017-05-24T06:26:58.394Z,66.33
2017-05-24T06:27:58.426Z,66.09
2017-05-24T06:28:58.423Z,66.66
2017-05-24T06:29:58.413Z,65.60
2017-05-24T06:30:58.407Z,66.14
2017-05-24T06:31:58.414Z,66.40
2017-05-24T06:32:58.411Z,66.81
2017-05-24T06:33:58.412Z,66.25
2017-05-24T06:34:58.410Z,65.39
2017-05-24T06:35:58.415Z,65.37
2017-05-24T06:36:58.417Z,65.22
2017-05-24T06:37:58.421Z,64.78
2017-05-24T06:38:58.475Z,64.44
2017-05-24T06:39:58.443Z,64.59
2017-05-24T06:40:58.431Z,64.62
2017-05-24T06:41:58.442Z,64.80
2017-05-24T06:42:58.438Z,64.59
2017-05-24T06:43:58.463Z,65.37
2017-05-24T06:44:58.441Z,65.94
2017-05-24T06:45:58.507Z,65.50
2017-05-24T06:46:58.461Z,65.01
2017-05-24T06:47:58.438Z,64.05
2017-05-24T06:48:58.414Z,64.23
2017-05-24T06:49:58.412Z,64.59
2017-05-24T06:50:58.413Z,65.37
2017-05-24T06:51:58.412Z,64.62
2017-05-24T06:52:58.416Z,63.69
2017-05-24T06:53:58.411Z,63.10
2017-05-24T06:54:58.417Z,64.44
2017-05-24T06:55:58.418Z,65.14
2017-05-24T06:56:58.355Z,64.72
2017-05-24T06:57:58.416Z,62.20
2017-05-24T06:58:58.446Z,60.01
2017-05-24T06:59:58.445Z,60.43
2017-05-24T07:00:58.471Z,60.58
2017-05-24T07:01:58.444Z,61.40
2017-05-24T07:02:58.408Z,61.53
2017-05-24T07:03:58.460Z,62.18
2017-05-24T07:04:58.471Z,60.35
2017-05-24T07:05:58.430Z,60.45
2017-05-24T07:06:58.474Z,59.28
2017-05-24T07:07:58.555Z,60.12
2017-05-24T07:08:58.480Z,59.53
2017-05-24T07:09:58.410Z,60.43
2017-05-24T07:10:58.477Z,56.97
2017-05-24T07:11:58.454Z,57.79
2017-05-24T07:12:58.457Z,57.23
2017-05-24T07:13:58.415Z,57.76
2017-05-24T07:14:58.453Z,58.68
2017-05-24T07:15:58.562Z,58.64
2017-05-24T07:16:58.458Z,58.15
2017-05-24T07:17:58.458Z,57.46
2017-05-24T07:18:58.439Z,57.56
2017-05-24T07:19:58.439Z,57.56
2017-05-24T07:20:58.439Z,58.74
2017-05-24T07:21:58.439Z,57.74
2017-05-24T07:22:58.442Z,56.18
2017-05-24T07:23:58.440Z,55.91
2017-05-24T07:24:58.440Z,57.46
2017-05-24T07:25:58.440Z,57.74
2017-05-24T07:26:58.440Z,57.54
2017-05-24T07:27:58.441Z,57.02
2017-05-24T07:28:58.438Z,56.57
2017-05-24T07:29:58.445Z,57.23
2017-05-24T07:30:58.468Z,57.82
2017-05-24T07:31:58.444Z,55.09
2017-05-24T07:32:58.445Z,56.11
2017-05-24T07:33:58.463Z,55.02
2017-05-24T07:34:58.468Z,56.61
2017-05-24T07:35:58.525Z,56.26
2017-05-24T07:36:58.446Z,55.72
2017-05-24T07:37:58.466Z,55.39
2017-05-24T07:38:58.458Z,55.02
2017-05-24T07:39:58.463Z,56.13
2017-05-24T07:40:58.465Z,56.65
2017-05-24T07:41:58.436Z,54.89
2017-05-24T07:42:58.491Z,55.24
2017-05-24T07:43:58.577Z,55.83
2017-05-24T07:44:58.465Z,56.26
2017-05-24T07:45:58.515Z,55.93
2017-05-24T07:46:58.443Z,56.59
2017-05-24T07:47:58.427Z,54.12
2017-05-24T07:48:58.465Z,52.22
2017-05-24T07:49:58.451Z,52.96
2017-05-24T07:50:58.477Z,53.75
2017-05-24T07:51:58.466Z,52.85
2017-05-24T07:52:58.466Z,54.99
2017-05-24T07:53:58.480Z,54.15
2017-05-24T07:54:58.498Z,53.09
2017-05-24T07:55:58.472Z,53.56
2017-05-24T07:56:58.434Z,51.84
2017-05-24T07:57:58.468Z,52.75
2017-05-24T07:58:58.478Z,52.75
2017-05-24T07:59:58.506Z,52.68
2017-05-24T08:00:58.486Z,53.03
2017-05-24T08:01:58.591Z,52.75
2017-05-24T08:02:58.480Z,52.93
2017-05-24T08:03:58.476Z,52.32
2017-05-24T08:04:58.592Z,51.71
2017-05-24T08:05:58.482Z,52.22
2017-05-24T08:06:58.479Z,52.60
2017-05-24T08:07:58.523Z,51.39
2017-05-24T08:08:58.489Z,50.58
2017-05-24T08:09:58.488Z,50.91
2017-05-24T08:10:58.503Z,52.63
2017-05-24T08:11:58.482Z,51.49
2017-05-24T08:12:58.487Z,50.93
2017-05-24T08:13:58.482Z,50.40
2017-05-24T08:14:58.485Z,49.27
2017-05-24T08:15:58.477Z,48.74
2017-05-24T08:16:58.473Z,49.44
2017-05-24T08:17:58.465Z,49.62
2017-05-24T08:18:58.421Z,48.97
2017-05-24T08:19:58.410Z,48.97
2017-05-24T08:20:58.366Z,48.39
2017-05-24T08:21:58.468Z,49.62
2017-05-24T08:22:58.368Z,50.22
2017-05-24T08:23:58.441Z,48.21
2017-05-24T08:24:58.379Z,49.49
2017-05-24T08:25:58.376Z,48.89
2017-05-24T08:26:58.438Z,48.23
2017-05-24T08:27:58.428Z,48.84
2017-05-24T08:28:58.498Z,49.87
2017-05-24T08:29:58.431Z,49.64
2017-05-24T08:30:58.521Z,48.36
2017-05-24T08:31:58.518Z,49.52
2017-05-24T08:32:58.501Z,49.75
2017-05-24T08:33:58.498Z,50.13
2017-05-24T08:34:58.497Z,49.37
2017-05-24T08:35:58.474Z,49.32
2017-05-24T08:36:58.505Z,48.64
2017-05-24T08:37:58.608Z,49.12
2017-05-24T08:38:58.503Z,48.81
2017-05-24T08:39:58.485Z,47.36
2017-05-24T08:40:58.507Z,49.34
2017-05-24T08:42:58.494Z,47.48
2017-05-24T08:43:58.483Z,48.69
2017-05-24T08:44:58.503Z,49.34
2017-05-24T08:45:58.511Z,49.22
2017-05-24T08:46:58.505Z,49.39
2017-05-24T08:47:58.611Z,49.60
2017-05-24T08:48:58.613Z,49.57
2017-05-24T08:49:58.464Z,52.60
2017-05-24T08:50:58.506Z,51.29
2017-05-24T08:51:58.506Z,48.59
2017-05-24T08:52:58.509Z,49.02
2017-05-24T08:53:58.502Z,49.62
2017-05-24T08:54:58.502Z,50.05
2017-05-24T08:55:58.514Z,48.11
2017-05-24T08:56:58.597Z,49.27
2017-05-24T08:57:58.470Z,50.45
2017-05-24T08:58:58.512Z,47.73
2017-05-24T08:59:58.507Z,48.28
2017-05-24T09:00:58.516Z,48.08
2017-05-24T09:01:58.509Z,48.16
2017-05-24T09:02:58.526Z,49.42
2017-05-24T09:03:58.495Z,48.84
2017-05-24T09:04:58.533Z,46.85
2017-05-24T09:05:58.529Z,47.38
2017-05-24T09:06:58.537Z,48.28
2017-05-24T09:07:58.537Z,47.68
2017-05-24T09:08:58.519Z,49.97
2017-05-24T09:09:58.507Z,46.98
2017-05-24T09:10:58.511Z,48.86
2017-05-24T09:11:58.494Z,47.76
2017-05-24T09:12:58.517Z,46.43
2017-05-24T09:13:58.518Z,48.34
2017-05-24T09:14:58.508Z,46.70
2017-05-24T09:15:58.494Z,46.30
2017-05-24T09:16:58.518Z,47.63
2017-05-24T09:17:58.523Z,46.02
2017-05-24T09:18:58.519Z,46.93
2017-05-24T09:19:58.527Z,47.96
2017-05-24T09:20:58.518Z,47.20
2017-05-24T09:21:58.629Z,47.45
2017-05-24T09:22:58.515Z,48.41
2017-05-24T09:23:58.524Z,47.86
2017-05-24T09:24:58.520Z,49.19
2017-05-24T09:25:58.542Z,49.09
2017-05-24T09:26:58.482Z,49.80
2017-05-24T09:27:58.524Z,49.22
2017-05-24T09:28:58.550Z,49.57
2017-05-24T09:29:58.546Z,48.56
2017-05-24T09:30:58.528Z,49.69
2017-05-24T09:31:58.530Z,48.11
2017-05-24T09:32:58.528Z,50.05
2017-05-24T09:33:58.503Z,49.52
2017-05-24T09:34:58.525Z,49.17
2017-05-24T09:35:58.534Z,48.81
2017-05-24T09:36:58.528Z,48.72
2017-05-24T09:37:58.539Z,48.59
2017-05-24T09:38:58.536Z,48.48
2017-05-24T09:39:58.487Z,49.49
2017-05-24T09:40:58.434Z,49.14
2017-05-24T09:41:58.421Z,46.55
2017-05-24T09:42:58.421Z,49.22
2017-05-24T09:43:58.428Z,46.93
2017-05-24T09:44:58.417Z,47.26
2017-05-24T09:45:58.423Z,47.53
2017-05-24T09:46:58.476Z,46.58
2017-05-24T09:47:58.475Z,47.08
2017-05-24T09:48:58.480Z,44.90
2017-05-24T09:49:58.503Z,46.95
2017-05-24T09:50:58.502Z,46.23
2017-05-24T09:51:58.514Z,46.12
2017-05-24T09:52:58.510Z,44.97
2017-05-24T09:53:58.507Z,46.73
2017-05-24T09:54:58.510Z,45.77
2017-05-24T09:55:58.506Z,44.05
2017-05-24T09:56:58.511Z,46.10
2017-05-24T09:57:58.513Z,45.93
2017-05-24T09:58:58.516Z,45.90
2017-05-24T09:59:58.536Z,45.25
2017-05-24T10:00:58.543Z,46.85
2017-05-24T10:01:58.547Z,45.57
2017-05-24T10:02:58.643Z,44.68
2017-05-24T10:03:58.504Z,43.92
2017-05-24T10:04:58.638Z,45.65
2017-05-24T10:05:58.548Z,45.77
2017-05-24T10:06:58.651Z,45.05
2017-05-24T10:07:58.547Z,47.08
2017-05-24T10:08:58.549Z,49.24
2017-05-24T10:09:58.528Z,49.67
2017-05-24T10:10:58.528Z,46.83
2017-05-24T10:11:58.527Z,47.03
2017-05-24T10:12:58.555Z,48.79
2017-05-24T10:13:58.526Z,49.32
2017-05-24T10:14:58.529Z,48.46
2017-05-24T10:15:58.530Z,47.86
2017-05-24T10:16:58.530Z,47.45
2017-05-24T10:17:58.530Z,48.61
2017-05-24T10:18:58.531Z,49.64
2017-05-24T10:19:58.546Z,48.31
2017-05-24T10:20:58.549Z,48.01
2017-05-24T10:21:58.571Z,45.75
2017-05-24T10:22:58.556Z,46.02
2017-05-24T10:23:58.554Z,46.50
2017-05-24T10:24:58.545Z,43.80
2017-05-24T10:25:58.554Z,46.35
2017-05-24T10:26:58.560Z,45.52
2017-05-24T10:27:58.558Z,45.60
2017-05-24T10:28:58.531Z,44.93
2017-05-24T10:29:58.548Z,45.15
2017-05-24T10:30:58.519Z,45.37
2017-05-24T10:31:58.555Z,45.82
2017-05-24T10:32:58.559Z,44.75
2017-05-24T10:33:58.556Z,46.68
2017-05-24T10:34:58.538Z,45.80
2017-05-24T10:35:58.559Z,45.77
2017-05-24T10:36:58.539Z,45.30
2017-05-24T10:37:58.565Z,46.88
2017-05-24T10:38:58.517Z,46.68
2017-05-24T10:39:58.538Z,44.93
2017-05-24T10:40:58.564Z,45.45
2017-05-24T10:41:58.559Z,47.81
2017-05-24T10:42:58.671Z,47.76
2017-05-24T10:43:58.556Z,46.75
2017-05-24T10:44:58.625Z,46.58
2017-05-24T10:45:58.568Z,47.28
2017-05-24T10:46:58.569Z,46.85
2017-05-24T10:47:58.566Z,47.40
2017-05-24T10:48:58.591Z,46.40
2017-05-24T10:49:58.547Z,47.26
2017-05-24T10:50:58.547Z,48.26
2017-05-24T10:51:58.547Z,48.36
2017-05-24T10:52:58.543Z,47.98
2017-05-24T10:53:58.550Z,49.82
2017-05-24T10:54:58.548Z,47.73
2017-05-24T10:55:58.630Z,49.32
2017-05-24T10:56:58.630Z,50.58
2017-05-24T10:57:58.547Z,47.45
2017-05-24T10:58:58.551Z,48.48
2017-05-24T10:59:58.551Z,49.02
2017-05-24T11:00:58.576Z,49.22
2017-05-24T11:01:58.568Z,48.97
2017-05-24T11:02:58.571Z,48.84
2017-05-24T11:03:58.567Z,48.03
2017-05-24T11:04:58.638Z,47.63
2017-05-24T11:05:58.566Z,47.20
2017-05-24T11:06:58.575Z,46.32
2017-05-24T11:07:58.581Z,46.88
2017-05-24T11:08:58.577Z,46.15
2017-05-24T11:09:58.580Z,49.60
2017-05-24T11:10:58.593Z,49.17
2017-05-24T11:11:58.568Z,48.14
2017-05-24T11:12:58.578Z,47.76
2017-05-24T11:13:58.555Z,47.00
2017-05-24T11:14:58.577Z,46.00
2017-05-24T11:15:58.583Z,48.21
2017-05-24T11:16:58.580Z,47.53
2017-05-24T11:17:58.688Z,46.63
2017-05-24T11:18:58.561Z,46.27
2017-05-24T11:19:58.585Z,47.00
2017-05-24T11:20:58.601Z,46.90
2017-05-24T11:21:58.590Z,48.39
2017-05-24T11:22:58.562Z,46.52
2017-05-24T11:23:58.588Z,48.44
2017-05-24T11:24:58.585Z,47.98
2017-05-24T11:25:58.585Z,46.50
2017-05-24T11:26:58.581Z,46.35
2017-05-24T11:27:58.586Z,47.51
2017-05-24T11:28:58.584Z,47.10
2017-05-24T11:29:58.582Z,46.83
2017-05-24T11:30:58.589Z,46.73
2017-05-24T11:31:58.591Z,46.65
2017-05-24T11:32:58.592Z,47.06
2017-05-24T11:33:58.613Z,45.90
2017-05-24T11:34:58.569Z,46.75
2017-05-24T11:35:58.587Z,47.33
2017-05-24T11:36:58.599Z,46.00
2017-05-24T11:38:58.592Z,44.70
2017-05-24T11:39:58.558Z,45.95
2017-05-24T11:40:58.562Z,46.55
2017-05-24T11:41:58.560Z,46.81
2017-05-24T11:42:58.562Z,48.26
2017-05-24T11:43:58.561Z,48.31
2017-05-24T11:44:58.563Z,47.88
2017-05-24T11:45:58.565Z,45.57
2017-05-24T11:46:58.567Z,45.80
2017-05-24T11:47:58.564Z,45.55
2017-05-24T11:48:58.567Z,44.57
2017-05-24T11:49:58.580Z,45.18
2017-05-24T11:50:58.682Z,44.55
2017-05-24T11:51:58.579Z,45.85
2017-05-24T11:52:58.584Z,45.50
2017-05-24T11:53:58.577Z,45.93
2017-05-24T11:54:58.581Z,46.58
2017-05-24T11:55:58.670Z,47.06
2017-05-24T11:56:58.581Z,46.65
2017-05-24T11:57:58.583Z,46.63
2017-05-24T11:58:58.583Z,47.28
2017-05-24T11:59:58.564Z,47.33
2017-05-24T12:00:58.607Z,48.61
2017-05-24T12:01:58.615Z,46.83
2017-05-24T12:02:58.606Z,46.78
2017-05-24T12:03:58.629Z,47.31
2017-05-24T12:04:58.604Z,46.60
2017-05-24T12:05:58.601Z,46.98
2017-05-24T12:06:58.605Z,48.39
2017-05-24T12:07:58.585Z,48.56
2017-05-24T12:08:58.609Z,47.53
2017-05-24T12:09:58.589Z,49.19
2017-05-24T12:10:58.613Z,48.54
2017-05-24T12:11:58.591Z,47.33
2017-05-24T12:12:58.590Z,47.81
2017-05-24T12:13:58.593Z,48.69
2017-05-24T12:14:58.597Z,47.31
2017-05-24T12:15:58.588Z,47.48
2017-05-24T12:16:58.591Z,47.15
2017-05-24T12:17:58.597Z,46.27
2017-05-24T12:18:58.592Z,46.70
2017-05-24T12:19:58.509Z,46.05
2017-05-24T12:20:58.570Z,46.35
2017-05-24T12:21:58.617Z,45.95
2017-05-24T12:22:58.553Z,47.45
2017-05-24T12:23:58.519Z,48.08
2017-05-24T12:24:58.556Z,47.15
2017-05-24T12:25:58.569Z,46.60
2017-05-24T12:26:58.549Z,47.88
2017-05-24T12:27:58.518Z,46.93
2017-05-24T12:28:58.548Z,46.38
2017-05-24T12:29:58.594Z,46.68
2017-05-24T12:30:58.669Z,48.16
2017-05-24T12:31:58.640Z,45.75
2017-05-24T12:32:58.642Z,45.75
2017-05-24T12:33:58.642Z,45.18
2017-05-24T12:34:58.594Z,44.80
2017-05-24T12:35:58.598Z,45.65
2017-05-24T12:36:58.617Z,45.77
2017-05-24T12:37:58.620Z,45.90
2017-05-24T12:38:58.616Z,46.05
2017-05-24T12:39:58.604Z,46.63
2017-05-24T12:40:58.601Z,47.03
2017-05-24T12:41:58.607Z,44.97
2017-05-24T12:42:58.604Z,46.40
2017-05-24T12:43:58.608Z,46.45
2017-05-24T12:44:58.604Z,46.60
2017-05-24T12:45:58.606Z,45.87
2017-05-24T12:46:58.606Z,46.23
2017-05-24T12:47:58.609Z,46.98
2017-05-24T12:48:58.608Z,48.61
2017-05-24T12:49:58.602Z,46.55
2017-05-24T12:50:58.596Z,46.02
2017-05-24T12:51:58.598Z,46.50
2017-05-24T12:52:58.596Z,47.38
2017-05-24T12:53:58.606Z,46.88
2017-05-24T12:54:58.599Z,45.15